This is the latest recevied weather packets stored in our database for station/object YO4TNV-15. If no packets are shown the sender has not sent any weather packets the latest 10 day(s).
| Time | Temp. | Humidity | Pressure | Rain* | Wind** | Luminosity | Snow |
|---|---|---|---|---|---|---|---|
| 1777632737 | 15.56° C | 24% | 1011.3 hPa | - | - | - | - |
| 1777632729 | 15.56° C | 24% | 1011.3 hPa | - | - | - | - |
| 1777631837 | 15° C | 24% | 1011.5 hPa | - | - | - | - |
| 1777631829 | 15° C | 24% | 1011.5 hPa | - | - | - | - |
| 1777630936 | 14.44° C | 26% | 1011.6 hPa | - | - | - | - |
| 1777630928 | 14.44° C | 26% | 1011.6 hPa | - | - | - | - |
| 1777630037 | 14.44° C | 25% | 1011.6 hPa | - | - | - | - |
| 1777630028 | 14.44° C | 25% | 1011.6 hPa | - | - | - | - |
| 1777629136 | 14.44° C | 26% | 1011.8 hPa | - | - | - | - |
| 1777629128 | 14.44° C | 26% | 1011.8 hPa | - | - | - | - |
| 1777628237 | 13.89° C | 25% | 1012 hPa | - | - | - | - |
| 1777628228 | 13.89° C | 25% | 1012 hPa | - | - | - | - |
| 1777627337 | 13.33° C | 27% | 1012.2 hPa | - | - | - | - |
| 1777627328 | 13.33° C | 27% | 1012.2 hPa | - | - | - | - |
| 1777626437 | 15.56° C | 23% | 1012.1 hPa | - | - | - | - |
| 1777626428 | 15.56° C | 23% | 1012.1 hPa | - | - | - | - |
| 1777625537 | 15.56° C | 24% | 1012.1 hPa | - | - | - | - |
| 1777625528 | 15.56° C | 24% | 1012.1 hPa | - | - | - | - |
| 1777624627 | 16.11° C | 24% | 1012.1 hPa | - | - | - | - |
| 1777623727 | 15.56° C | 22% | 1012.3 hPa | - | - | - | - |
| 1777622827 | 15.56° C | 25% | 1012.3 hPa | - | - | - | - |
| 1777621937 | 14.44° C | 26% | 1012.4 hPa | - | - | - | - |
| 1777621927 | 14.44° C | 26% | 1012.4 hPa | - | - | - | - |
| 1777621036 | 16.67° C | 25% | 1012.3 hPa | - | - | - | - |
| 1777621027 | 16.67° C | 25% | 1012.3 hPa | - | - | - | - |
* Rain since midnight (hover to see other rain measurements)
** Current wind speed in m/s (hover to see current wind gust speed)